Exchange, West Virginia
Current Conditions -  °F | °C
As of 6:55 PM on Saturday 22 Nov 2014 (Local Time) from KW22 Reporting Station
Broken Clouds Broken Clouds  
Wind Chill: 50°   Ceiling: 9500
Heat Index: 50°   Visibility: 10mi
Dew Point: 28°   Wind: 5mph
Humidity: 43%   Direction: 180°S
Pressure: 30.17"   Gusts: NA
Location:  38.77°N, 80.72°W
Report Text: KW22 222355Z AUTO 18004KT 10SM BKN095 10/M02 A3017 RMK AO2
Loading
Personal Weather Stations






























Interactive Weather Map New forecast layout! Learn more

10-Day Weather Forecast

Advertisements
Track Severe Weather on mobile